createdAt,value
2023-02-09T10:32:45.463Z,72.26
2023-02-09T10:35:27.963Z,70.83
2023-02-09T10:38:02.327Z,69.69
2023-02-09T10:40:39.461Z,68.96
2023-02-09T10:43:39.073Z,68.96
2023-02-09T10:46:48.555Z,69.68
2023-02-09T10:49:35.576Z,67.89
2023-02-09T10:52:10.636Z,69.40
2023-02-09T10:54:49.016Z,67.75
2023-02-09T10:57:37.574Z,66.52
2023-02-09T11:00:17.222Z,66.12
2023-02-09T11:02:48.772Z,66.58
2023-02-09T11:05:23.406Z,67.36
2023-02-09T11:08:16.846Z,65.68
2023-02-09T11:10:58.719Z,65.87
2023-02-09T11:13:27.603Z,64.75
2023-02-09T11:16:14.311Z,65.36
2023-02-09T11:18:49.683Z,64.36
2023-02-09T11:21:33.231Z,64.92
2023-02-09T11:24:12.482Z,64.58
2023-02-09T11:26:50.041Z,64.39
2023-02-09T11:38:14.235Z,64.81
2023-02-09T11:40:48.603Z,66.41
2023-02-09T11:43:41.665Z,65.33
2023-02-09T11:46:23.309Z,65.38
2023-02-09T11:49:00.771Z,64.04
2023-02-09T11:51:31.616Z,64.90
2023-02-09T11:54:09.238Z,64.83
2023-02-09T11:56:46.636Z,62.81
2023-02-09T11:59:37.335Z,62.97
2023-02-09T12:02:15.647Z,62.17
2023-02-09T12:05:17.269Z,60.83
2023-02-09T12:08:30.141Z,62.14
2023-02-09T12:11:23.894Z,60.50
2023-02-09T12:14:01.349Z,60.37
2023-02-09T12:16:43.051Z,60.86
2023-02-09T12:19:34.882Z,58.07
2023-02-09T12:22:34.907Z,57.83
2023-02-09T12:25:12.342Z,59.16
2023-02-09T12:27:43.275Z,57.62
2023-02-09T12:30:43.189Z,56.82
2023-02-09T12:33:24.249Z,56.96
2023-02-09T12:36:04.643Z,54.80
2023-02-09T12:39:03.852Z,54.42
2023-02-09T12:41:55.473Z,51.44
2023-02-09T12:44:23.941Z,50.14
2023-02-09T12:46:55.650Z,48.81
2023-02-09T12:49:30.961Z,46.80
2023-02-09T12:52:02.428Z,48.91
2023-02-09T12:54:57.082Z,48.20
2023-02-09T12:58:08.400Z,46.61
2023-02-09T13:00:42.903Z,45.58
2023-02-09T13:03:17.413Z,45.92
2023-02-09T13:05:48.144Z,46.83
2023-02-09T13:08:24.647Z,46.30
2023-02-09T13:11:25.479Z,47.67
2023-02-09T13:13:56.242Z,47.51
2023-02-09T13:16:31.436Z,46.51
2023-02-09T13:19:18.710Z,49.72
2023-02-09T13:22:02.491Z,49.23
2023-02-09T13:24:53.355Z,48.85
2023-02-09T13:27:22.960Z,48.03
2023-02-09T13:29:57.455Z,48.86
2023-02-09T13:32:50.656Z,49.63
2023-02-09T13:35:34.948Z,49.30
2023-02-09T13:38:17.074Z,48.57
2023-02-09T13:40:49.053Z,49.18
2023-02-09T13:43:29.885Z,49.56
2023-02-09T13:46:00.299Z,48.79
2023-02-09T13:48:33.423Z,48.38
2023-02-09T13:51:05.177Z,50.00
2023-02-09T13:53:36.100Z,50.36
2023-02-09T13:56:12.392Z,50.95
2023-02-09T13:58:40.930Z,49.48
2023-02-09T14:01:26.587Z,49.83
2023-02-09T14:04:16.399Z,50.57
2023-02-09T14:06:52.433Z,52.19
2023-02-09T14:09:30.177Z,51.93
2023-02-09T14:12:06.838Z,50.54
2023-02-09T14:15:01.138Z,51.41
2023-02-09T14:17:38.844Z,51.41
2023-02-09T14:20:21.865Z,51.45
2023-02-09T14:23:02.441Z,51.22
2023-02-09T14:25:34.246Z,52.37
2023-02-09T14:28:03.957Z,51.63
2023-02-09T14:30:38.082Z,51.25
2023-02-09T14:33:08.317Z,51.47
2023-02-09T14:35:39.755Z,52.61
2023-02-09T14:38:48.282Z,52.48
2023-02-09T14:41:26.246Z,52.83
2023-02-09T14:44:22.720Z,53.05
2023-02-09T14:46:56.154Z,53.67
2023-02-09T14:49:26.776Z,53.00
2023-02-09T14:52:07.040Z,53.41
2023-02-09T14:54:46.950Z,53.45
2023-02-09T14:57:22.639Z,53.90
2023-02-09T14:59:51.615Z,53.24
2023-02-09T15:02:26.774Z,53.53
2023-02-09T15:05:00.831Z,54.47
2023-02-09T15:07:45.816Z,54.82
2023-02-09T15:10:29.549Z,54.62
2023-02-09T15:12:58.987Z,55.26
2023-02-09T15:15:28.004Z,55.40
2023-02-09T15:17:59.485Z,55.30
2023-02-09T15:20:31.568Z,55.54
2023-02-09T15:23:02.476Z,55.94
2023-02-09T15:25:31.455Z,55.96
2023-02-09T15:28:03.157Z,55.79
2023-02-09T15:30:36.093Z,55.95
2023-02-09T15:33:07.186Z,56.16
2023-02-09T15:35:42.910Z,56.68
2023-02-09T15:38:15.834Z,57.14
2023-02-09T15:41:15.313Z,56.92
2023-02-09T15:44:06.133Z,57.12
2023-02-09T15:46:53.305Z,57.21
2023-02-09T15:49:26.726Z,57.16
2023-02-09T15:51:55.008Z,57.18
2023-02-09T15:54:30.420Z,57.67
2023-02-09T15:57:04.281Z,57.49
2023-02-09T15:59:39.507Z,58.07
2023-02-09T16:02:13.993Z,58.06
2023-02-09T16:04:43.652Z,58.43
2023-02-09T16:07:25.096Z,58.63
2023-02-09T16:09:54.401Z,59.02
2023-02-09T16:12:26.152Z,58.85
2023-02-09T16:14:59.237Z,59.29
2023-02-09T16:17:29.168Z,59.60
2023-02-09T16:19:59.860Z,60.29
2023-02-09T16:22:29.247Z,60.47
2023-02-09T16:24:58.762Z,60.76
2023-02-09T16:27:29.853Z,60.46
2023-02-09T16:29:59.909Z,60.35
2023-02-09T16:32:32.702Z,60.49
2023-02-09T16:44:49.015Z,60.39
2023-02-09T16:47:40.472Z,60.21
2023-02-09T16:50:33.754Z,60.11
2023-02-09T16:53:14.345Z,60.12
2023-02-09T16:55:49.248Z,60.84
2023-02-09T16:58:22.065Z,60.90
2023-02-09T17:00:52.510Z,61.17
2023-02-09T17:03:26.934Z,60.86
2023-02-09T17:05:58.026Z,61.14
2023-02-09T17:08:32.371Z,61.42
2023-02-09T17:11:04.368Z,61.15
2023-02-09T17:13:33.118Z,61.41
2023-02-09T17:16:05.603Z,61.78
2023-02-09T17:18:39.374Z,61.15
2023-02-09T17:21:21.225Z,60.97
2023-02-09T17:23:51.219Z,61.48
2023-02-09T17:26:21.012Z,61.69
2023-02-09T17:28:49.774Z,61.96
2023-02-09T17:31:25.900Z,62.05
2023-02-09T17:33:57.583Z,62.26
2023-02-09T17:36:28.630Z,62.05
2023-02-09T17:39:03.132Z,62.07
2023-02-09T17:41:48.706Z,62.34
2023-02-09T17:44:45.137Z,62.49
2023-02-09T17:47:30.648Z,62.63
2023-02-09T17:50:08.470Z,62.64
2023-02-09T17:52:39.488Z,62.45
2023-02-09T17:55:16.635Z,62.76
2023-02-09T17:57:45.583Z,62.50
2023-02-09T18:00:15.852Z,63.00
2023-02-09T18:02:45.720Z,62.93
2023-02-09T18:05:21.085Z,62.67
2023-02-09T18:07:50.073Z,62.95
2023-02-09T18:10:21.560Z,63.06
2023-02-09T18:12:53.370Z,63.37
2023-02-09T18:15:26.068Z,63.42
2023-02-09T18:17:55.056Z,63.01
2023-02-09T18:20:28.211Z,63.09
2023-02-09T18:22:59.188Z,63.23
2023-02-09T18:25:37.821Z,62.93
2023-02-09T18:28:12.399Z,63.03
2023-02-09T18:30:43.737Z,63.35
2023-02-09T18:33:19.544Z,63.85
2023-02-09T18:36:01.470Z,63.81
2023-02-09T18:38:31.920Z,63.78
2023-02-09T18:41:03.943Z,63.96
2023-02-09T18:43:32.499Z,63.89
2023-02-09T18:46:02.248Z,64.50
2023-02-09T18:48:34.032Z,64.69
2023-02-09T18:51:05.549Z,64.93
2023-02-09T18:53:38.916Z,65.02
2023-02-09T18:56:59.405Z,65.23
2023-02-09T18:59:32.502Z,65.42
2023-02-09T19:02:04.085Z,65.76
2023-02-09T19:04:41.190Z,66.01
2023-02-09T19:07:45.719Z,66.04
2023-02-09T19:10:23.435Z,65.95
2023-02-09T19:12:54.422Z,66.22
2023-02-09T19:15:30.226Z,66.33
2023-02-09T19:18:00.315Z,66.16
2023-02-09T19:20:31.361Z,66.30
2023-02-09T19:23:00.413Z,66.49
2023-02-09T19:25:31.355Z,66.51
2023-02-09T19:28:00.558Z,66.31
2023-02-09T19:30:29.078Z,66.69
2023-02-09T19:33:02.395Z,66.69
2023-02-09T19:35:32.362Z,66.68
2023-02-09T19:38:00.912Z,66.77
2023-02-09T19:40:36.560Z,66.91
2023-02-09T19:43:08.786Z,67.04
2023-02-09T19:45:37.964Z,67.36
2023-02-09T19:48:09.725Z,67.56
2023-02-09T19:50:40.694Z,67.53
2023-02-09T19:53:09.807Z,67.49
2023-02-09T19:55:39.234Z,67.23
2023-02-09T19:58:09.145Z,67.34
2023-02-09T20:00:38.683Z,67.64
2023-02-09T20:03:14.175Z,67.73
2023-02-09T20:05:44.993Z,67.65
2023-02-09T20:08:19.309Z,67.80
2023-02-09T20:10:48.870Z,67.72
2023-02-09T20:15:50.742Z,67.85
2023-02-09T20:18:25.677Z,67.87
2023-02-09T20:20:56.754Z,68.16
2023-02-09T20:23:25.350Z,68.26
2023-02-09T20:25:58.276Z,68.34
2023-02-09T20:28:27.632Z,68.44
2023-02-09T20:31:02.123Z,68.72
2023-02-09T20:33:32.504Z,68.69
2023-02-09T20:36:09.764Z,68.66
2023-02-09T20:38:40.062Z,68.76
2023-02-09T20:41:11.924Z,68.96
2023-02-09T20:44:00.191Z,69.13
2023-02-09T20:46:52.351Z,69.09
2023-02-09T20:49:38.571Z,69.08
2023-02-09T20:52:21.963Z,69.43
2023-02-09T20:54:52.308Z,69.48
2023-02-09T20:57:36.798Z,69.56
2023-02-09T21:00:10.712Z,69.76
2023-02-09T21:02:42.695Z,69.72
2023-02-09T21:05:15.473Z,69.70
2023-02-09T21:07:47.061Z,69.81
2023-02-09T21:10:20.309Z,70.00
2023-02-09T21:12:49.502Z,70.22
2023-02-09T21:15:18.563Z,70.13
2023-02-09T21:17:50.567Z,70.20
2023-02-09T21:20:22.758Z,70.36
2023-02-09T21:22:54.698Z,70.36
2023-02-09T21:25:29.269Z,70.19
2023-02-09T21:28:03.953Z,70.47
2023-02-09T21:30:39.460Z,70.57
2023-02-09T21:33:12.047Z,70.66
2023-02-09T21:35:42.201Z,70.72
2023-02-09T21:38:10.786Z,70.63
2023-02-09T21:40:42.630Z,70.51
2023-02-09T21:43:27.075Z,70.47
2023-02-09T21:45:55.435Z,70.57
2023-02-09T21:48:24.652Z,70.70
2023-02-09T21:50:53.729Z,70.77
2023-02-09T21:53:23.468Z,71.08
2023-02-09T21:55:52.934Z,70.89
2023-02-09T21:58:21.682Z,70.55
2023-02-09T22:00:58.250Z,70.71
2023-02-09T22:03:26.720Z,70.46
2023-02-09T22:06:02.708Z,69.78
2023-02-09T22:08:31.802Z,70.46
2023-02-09T22:11:02.601Z,70.19
2023-02-09T22:13:31.189Z,69.90
2023-02-09T22:15:59.544Z,69.70
2023-02-09T22:18:27.811Z,69.96
2023-02-09T22:20:57.587Z,69.77
2023-02-09T22:23:27.340Z,69.79
2023-02-09T22:26:02.681Z,69.76
2023-02-09T22:28:32.626Z,69.44
2023-02-09T22:31:13.301Z,69.52
2023-02-09T22:33:42.622Z,70.02
2023-02-09T22:36:19.060Z,69.88
2023-02-09T22:38:47.513Z,69.82
2023-02-09T22:41:22.064Z,69.88
2023-02-09T22:43:59.659Z,69.75
2023-02-09T22:46:31.551Z,69.85
2023-02-09T22:49:02.250Z,69.77
2023-02-09T22:51:31.343Z,69.91
2023-02-09T22:54:00.523Z,69.94
2023-02-09T22:56:29.973Z,70.04
2023-02-09T22:58:59.891Z,70.04
2023-02-09T23:01:29.520Z,70.01
2023-02-09T23:03:58.795Z,70.08
2023-02-09T23:06:30.229Z,69.90
2023-02-09T23:09:04.944Z,70.06
2023-02-09T23:11:34.072Z,70.15
2023-02-09T23:14:10.937Z,70.23
2023-02-09T23:16:41.766Z,70.28
2023-02-09T23:19:14.350Z,70.23
2023-02-09T23:21:45.526Z,70.46
2023-02-09T23:24:17.041Z,70.41
2023-02-09T23:26:45.483Z,70.49
2023-02-09T23:29:15.921Z,70.67
2023-02-09T23:31:45.616Z,70.66
2023-02-09T23:34:17.998Z,70.85
2023-02-09T23:36:47.199Z,71.08
2023-02-09T23:39:18.772Z,71.17
2023-02-09T23:41:49.192Z,71.33
2023-02-09T23:44:19.724Z,71.52
2023-02-09T23:46:48.373Z,71.52
2023-02-09T23:49:16.839Z,71.54
2023-02-09T23:51:47.010Z,71.56
2023-02-09T23:54:15.437Z,71.72
2023-02-09T23:56:45.538Z,71.80
2023-02-09T23:59:16.346Z,71.91
